createdAt,value
2023-01-28T00:01:26.576Z,4.40
2023-01-28T00:04:32.188Z,4.40
2023-01-28T00:07:37.833Z,4.30
2023-01-28T00:10:43.846Z,4.30
2023-01-28T00:13:47.472Z,4.30
2023-01-28T00:16:53.206Z,4.30
2023-01-28T00:19:56.822Z,4.30
2023-01-28T00:23:04.424Z,4.30
2023-01-28T00:26:09.204Z,4.30
2023-01-28T00:29:14.847Z,4.30
2023-01-28T00:32:20.982Z,4.30
2023-01-28T00:35:26.642Z,4.30
2023-01-28T00:38:32.239Z,4.30
2023-01-28T00:41:37.898Z,4.30
2023-01-28T00:44:41.502Z,4.30
2023-01-28T00:47:47.755Z,4.30
2023-01-28T00:50:51.362Z,4.30
2023-01-28T00:53:58.982Z,4.30
2023-01-28T00:57:03.902Z,4.20
2023-01-28T01:00:10.266Z,4.20
2023-01-28T01:03:13.839Z,4.20
2023-01-28T01:06:19.606Z,4.10
2023-01-28T01:09:25.300Z,4.10
2023-01-28T01:12:31.139Z,4.10
2023-01-28T01:15:34.936Z,4.00
2023-01-28T01:18:42.614Z,4.00
2023-01-28T01:21:49.887Z,4.00
2023-01-28T01:24:57.596Z,3.90
2023-01-28T01:28:01.313Z,3.90
2023-01-28T01:31:08.417Z,3.90
2023-01-28T01:34:12.089Z,3.80
2023-01-28T01:37:19.994Z,3.80
2023-01-28T01:40:25.560Z,3.80
2023-01-28T01:43:48.161Z,3.80
2023-01-28T01:46:53.077Z,3.70
2023-01-28T01:50:00.238Z,3.70
2023-01-28T01:53:06.261Z,3.70
2023-01-28T01:56:16.315Z,3.70
2023-01-28T01:59:21.710Z,3.70
2023-01-28T02:02:27.390Z,3.70
2023-01-28T02:05:31.167Z,3.60
2023-01-28T02:08:40.780Z,3.60
2023-01-28T02:11:46.289Z,3.60
2023-01-28T02:14:54.892Z,3.60
2023-01-28T02:17:58.811Z,3.60
2023-01-28T02:21:26.770Z,3.50
2023-01-28T02:24:53.361Z,3.50
2023-01-28T02:28:09.662Z,3.50
2023-01-28T02:31:16.885Z,3.50
2023-01-28T02:34:27.982Z,3.50
2023-01-28T02:37:35.826Z,3.50
2023-01-28T02:40:56.842Z,3.50
2023-01-28T02:44:03.284Z,3.50
2023-01-28T02:47:24.581Z,3.50
2023-01-28T02:50:33.098Z,3.50
2023-01-28T02:53:43.506Z,3.50
2023-01-28T02:56:50.371Z,3.50
2023-01-28T03:00:03.190Z,3.50
2023-01-28T03:03:12.409Z,3.50
2023-01-28T03:06:20.345Z,3.50
2023-01-28T03:09:26.432Z,3.50
2023-01-28T03:12:47.017Z,3.50
2023-01-28T03:16:05.733Z,3.50
2023-01-28T03:19:25.956Z,3.50
2023-01-28T03:22:43.661Z,3.50
2023-01-28T03:26:08.552Z,3.50
2023-01-28T03:29:27.178Z,3.50
2023-01-28T03:32:48.351Z,3.50
2023-01-28T03:36:05.323Z,3.50
2023-01-28T03:39:11.003Z,3.50
2023-01-28T03:42:18.188Z,3.50
2023-01-28T03:45:34.278Z,3.50
2023-01-28T03:48:42.204Z,3.50
2023-01-28T03:51:50.455Z,3.50
2023-01-28T03:54:54.248Z,3.50
2023-01-28T03:58:00.486Z,3.50
2023-01-28T04:01:04.163Z,3.50
2023-01-28T04:04:24.036Z,3.50
2023-01-28T04:07:28.758Z,3.50
2023-01-28T04:10:53.113Z,3.50
2023-01-28T04:14:04.168Z,3.50
2023-01-28T04:17:32.308Z,3.50
2023-01-28T04:20:38.605Z,3.50
2023-01-28T04:23:44.339Z,3.50
2023-01-28T04:26:50.653Z,3.50
2023-01-28T04:29:56.464Z,3.50
2023-01-28T04:33:16.048Z,3.50
2023-01-28T04:36:40.666Z,3.50
2023-01-28T04:40:01.269Z,3.50
2023-01-28T04:43:20.011Z,3.50
2023-01-28T04:46:28.698Z,3.50
2023-01-28T04:49:40.943Z,3.50
2023-01-28T04:53:06.674Z,3.40
2023-01-28T04:56:29.124Z,3.40
2023-01-28T04:59:32.955Z,3.40
2023-01-28T05:02:38.797Z,3.40
2023-01-28T05:05:42.445Z,3.30
2023-01-28T05:08:59.955Z,3.30
2023-01-28T05:12:04.366Z,3.30
2023-01-28T05:15:11.674Z,3.30
2023-01-28T05:18:15.389Z,3.20
2023-01-28T05:21:28.052Z,3.20
2023-01-28T05:24:41.190Z,3.20
2023-01-28T05:27:51.118Z,3.20
2023-01-28T05:30:54.757Z,3.20
2023-01-28T05:34:00.598Z,3.20
2023-01-28T05:37:04.478Z,3.20
2023-01-28T05:40:15.982Z,3.20
2023-01-28T05:43:20.409Z,3.20
2023-01-28T05:46:58.333Z,3.20
2023-01-28T05:50:20.326Z,3.20
2023-01-28T05:53:50.068Z,3.20
2023-01-28T05:56:55.579Z,3.20
2023-01-28T06:00:01.239Z,3.20
2023-01-28T06:03:04.957Z,3.20
2023-01-28T06:06:11.212Z,3.20
2023-01-28T06:09:14.996Z,3.20
2023-01-28T06:12:22.686Z,3.20
2023-01-28T06:15:52.205Z,3.20
2023-01-28T06:19:20.760Z,3.20
2023-01-28T06:22:24.484Z,3.20
2023-01-28T06:25:30.129Z,3.20
2023-01-28T06:28:39.655Z,3.20
2023-01-28T06:31:45.274Z,3.20
2023-01-28T06:34:48.930Z,3.20
2023-01-28T06:37:54.818Z,3.20
2023-01-28T06:40:58.840Z,3.20
2023-01-28T06:44:06.721Z,3.20
2023-01-28T06:47:10.696Z,3.20
2023-01-28T06:50:16.730Z,3.20
2023-01-28T06:53:20.851Z,3.20
2023-01-28T06:56:26.538Z,3.20
2023-01-28T06:59:32.034Z,3.20
2023-01-28T07:02:37.912Z,3.20
2023-01-28T07:05:41.494Z,3.20
2023-01-28T07:08:47.140Z,3.20
2023-01-28T07:11:50.702Z,3.20
2023-01-28T07:14:58.220Z,3.20
2023-01-28T07:18:02.187Z,3.20
2023-01-28T07:21:08.641Z,3.20
2023-01-28T07:24:12.433Z,3.20
2023-01-28T07:27:18.077Z,3.20
2023-01-28T07:30:23.587Z,3.20
2023-01-28T07:33:29.261Z,3.20
2023-01-28T07:36:32.843Z,3.20
2023-01-28T07:39:38.528Z,3.20
2023-01-28T07:42:42.145Z,3.20
2023-01-28T07:45:52.388Z,3.20
2023-01-28T07:48:56.167Z,3.20
2023-01-28T07:52:01.823Z,3.20
2023-01-28T07:55:05.850Z,3.20
2023-01-28T07:58:12.470Z,3.20
2023-01-28T08:01:19.098Z,3.20
2023-01-28T08:04:24.874Z,3.20
2023-01-28T08:07:29.613Z,3.20
2023-01-28T08:10:35.245Z,3.20
2023-01-28T08:13:38.853Z,3.20
2023-01-28T08:16:46.403Z,3.20
2023-01-28T08:19:50.066Z,3.20
2023-01-28T08:22:55.985Z,3.20
2023-01-28T08:25:59.975Z,3.20
2023-01-28T08:29:05.604Z,3.20
2023-01-28T08:32:11.142Z,3.30
2023-01-28T08:35:16.825Z,3.30
2023-01-28T08:38:20.464Z,3.30
2023-01-28T08:41:26.068Z,3.30
2023-01-28T08:44:29.651Z,3.30
2023-01-28T08:47:37.246Z,3.30
2023-01-28T08:50:41.067Z,3.30
2023-01-28T08:53:46.696Z,3.30
2023-01-28T08:56:51.049Z,3.30
2023-01-28T08:59:56.748Z,3.30
2023-01-28T09:03:04.616Z,3.30
2023-01-28T09:06:11.547Z,3.30
2023-01-28T09:09:15.161Z,3.40
2023-01-28T09:12:20.804Z,3.40
2023-01-28T09:15:24.502Z,3.40
2023-01-28T09:18:32.047Z,3.40
2023-01-28T09:21:35.708Z,3.40
2023-01-28T09:24:41.320Z,3.40
2023-01-28T09:27:44.872Z,3.50
2023-01-28T09:30:50.564Z,3.50
2023-01-28T09:33:56.721Z,3.50
2023-01-28T09:37:02.319Z,3.50
2023-01-28T09:40:06.843Z,3.50
2023-01-28T09:43:27.897Z,3.60
2023-01-28T09:46:33.270Z,3.60
2023-01-28T09:49:43.383Z,3.60
2023-01-28T09:52:46.983Z,3.70
2023-01-28T09:55:56.136Z,3.60
2023-01-28T09:58:59.871Z,3.70
2023-01-28T10:02:15.274Z,3.70
2023-01-28T10:05:24.536Z,3.70
2023-01-28T10:08:38.056Z,3.80
2023-01-28T10:11:48.955Z,3.80
2023-01-28T10:15:01.193Z,3.80
2023-01-28T10:18:16.926Z,3.90
2023-01-28T10:21:27.944Z,3.90
2023-01-28T10:24:33.357Z,4.00
2023-01-28T10:27:38.976Z,4.10
2023-01-28T10:30:44.358Z,4.20
2023-01-28T10:33:49.954Z,4.30
2023-01-28T10:36:56.465Z,4.50
2023-01-28T10:40:02.484Z,4.60
2023-01-28T10:43:08.093Z,4.80
2023-01-28T10:46:16.697Z,4.90
2023-01-28T10:49:23.547Z,5.00
2023-01-28T10:52:31.096Z,5.10
2023-01-28T10:55:37.890Z,5.20
2023-01-28T10:58:51.927Z,5.30
2023-01-28T11:01:56.469Z,5.50
2023-01-28T11:05:03.526Z,5.50
2023-01-28T11:08:15.313Z,5.60
2023-01-28T11:11:25.430Z,5.70
2023-01-28T11:14:29.239Z,5.70
2023-01-28T11:17:36.303Z,5.80
2023-01-28T11:20:43.126Z,5.80
2023-01-28T11:23:52.412Z,5.90
2023-01-28T11:26:57.407Z,5.90
2023-01-28T11:30:04.334Z,6.00
2023-01-28T11:33:15.610Z,6.10
2023-01-28T11:36:22.212Z,6.10
2023-01-28T11:39:29.151Z,6.20
2023-01-28T11:42:34.773Z,6.20
2023-01-28T11:45:45.599Z,6.20
2023-01-28T11:48:54.041Z,6.30
2023-01-28T11:52:00.435Z,6.30
2023-01-28T11:55:17.179Z,6.30
2023-01-28T11:58:23.480Z,6.30
2023-01-28T12:01:33.231Z,6.30
2023-01-28T12:04:48.886Z,6.30
2023-01-28T12:07:58.050Z,6.30
2023-01-28T12:11:12.148Z,6.30
2023-01-28T12:14:23.899Z,6.20
2023-01-28T12:17:34.345Z,6.20
2023-01-28T12:20:43.970Z,6.20
2023-01-28T12:23:57.510Z,6.10
2023-01-28T12:27:12.101Z,6.10
2023-01-28T12:30:21.187Z,6.00
2023-01-28T12:33:38.378Z,6.00
2023-01-28T12:36:47.372Z,5.90
2023-01-28T12:40:01.396Z,5.90
2023-01-28T12:43:08.361Z,5.80
2023-01-28T12:46:27.004Z,5.80
2023-01-28T12:49:33.536Z,5.80
2023-01-28T12:52:41.333Z,5.70
2023-01-28T12:55:46.895Z,5.80
2023-01-28T12:58:58.014Z,5.70
2023-01-28T13:02:17.923Z,5.70
2023-01-28T13:05:28.689Z,5.70
2023-01-28T13:08:32.354Z,5.70
2023-01-28T13:11:38.716Z,5.70
2023-01-28T13:14:44.264Z,5.70
2023-01-28T13:17:57.175Z,5.70
2023-01-28T13:21:01.488Z,5.70
2023-01-28T13:24:19.974Z,5.70
2023-01-28T13:27:25.159Z,5.70
2023-01-28T13:30:33.619Z,5.60
2023-01-28T13:33:38.243Z,5.60
2023-01-28T13:36:46.326Z,5.60
2023-01-28T13:39:51.765Z,5.60
2023-01-28T13:43:01.649Z,5.60
2023-01-28T13:46:08.864Z,5.60
2023-01-28T13:49:16.833Z,5.60
2023-01-28T13:52:24.013Z,5.60
2023-01-28T13:55:43.636Z,5.50
2023-01-28T13:59:03.604Z,5.50
2023-01-28T14:02:24.072Z,5.50
2023-01-28T14:05:40.878Z,5.50
2023-01-28T14:09:03.811Z,5.50
2023-01-28T14:12:28.127Z,5.50
2023-01-28T14:16:00.967Z,5.50
2023-01-28T14:19:05.940Z,5.50
2023-01-28T14:22:18.197Z,5.50
2023-01-28T14:25:23.916Z,5.50
2023-01-28T14:28:35.822Z,5.50
2023-01-28T14:31:40.282Z,5.50
2023-01-28T14:34:47.143Z,5.50
2023-01-28T14:37:53.031Z,5.40
2023-01-28T14:40:59.200Z,5.40
2023-01-28T14:44:03.339Z,5.40
2023-01-28T14:47:22.335Z,5.40
2023-01-28T14:50:32.572Z,5.40
2023-01-28T14:53:58.317Z,5.40
2023-01-28T14:57:16.958Z,5.40
2023-01-28T15:00:24.064Z,5.40
2023-01-28T15:03:28.232Z,5.30
2023-01-28T15:06:36.943Z,5.40
2023-01-28T15:09:42.493Z,5.40
2023-01-28T15:12:50.328Z,5.30
2023-01-28T15:16:00.171Z,5.30
2023-01-28T15:19:09.071Z,5.30
2023-01-28T15:22:16.516Z,5.30
2023-01-28T15:25:24.807Z,5.30
2023-01-28T15:28:30.146Z,5.30
2023-01-28T15:31:38.516Z,5.40
2023-01-28T15:34:47.130Z,5.30
2023-01-28T15:37:53.064Z,5.30
2023-01-28T15:40:59.915Z,5.30
2023-01-28T15:44:05.761Z,5.30
2023-01-28T15:47:15.361Z,5.30
2023-01-28T15:50:21.943Z,5.30
2023-01-28T15:53:25.546Z,5.30
2023-01-28T15:56:33.232Z,5.30
2023-01-28T15:59:37.165Z,5.30
2023-01-28T16:02:46.539Z,5.20
2023-01-28T16:05:58.282Z,5.20
2023-01-28T16:09:04.797Z,5.20
2023-01-28T16:12:12.610Z,5.10
2023-01-28T16:15:21.000Z,5.10
2023-01-28T16:18:30.609Z,5.10
2023-01-28T16:21:38.068Z,5.00
2023-01-28T16:24:51.630Z,5.00
2023-01-28T16:27:59.693Z,5.00
2023-01-28T16:31:03.442Z,4.90
2023-01-28T16:34:09.626Z,4.90
2023-01-28T16:37:13.511Z,4.90
2023-01-28T16:40:20.319Z,4.90
2023-01-28T16:43:26.141Z,4.90
2023-01-28T16:46:32.621Z,4.80
2023-01-28T16:49:36.211Z,4.80
2023-01-28T16:52:42.437Z,4.80
2023-01-28T16:55:45.986Z,4.80
2023-01-28T16:58:53.515Z,4.80
2023-01-28T17:01:57.163Z,4.70
2023-01-28T17:05:02.846Z,4.70
2023-01-28T17:08:07.113Z,4.70
2023-01-28T17:11:13.063Z,4.60
2023-01-28T17:14:18.515Z,4.60
2023-01-28T17:17:24.089Z,4.60
2023-01-28T17:20:27.845Z,4.60
2023-01-28T17:23:34.142Z,4.60
2023-01-28T17:26:37.910Z,4.50
2023-01-28T17:29:45.425Z,4.50
2023-01-28T17:32:49.032Z,4.50
2023-01-28T17:35:57.293Z,4.50
2023-01-28T17:39:01.410Z,4.50
2023-01-28T17:42:07.104Z,4.50
2023-01-28T17:45:12.773Z,4.50
2023-01-28T17:48:18.465Z,4.40
2023-01-28T17:51:22.132Z,4.40
2023-01-28T17:54:28.193Z,4.40
2023-01-28T17:57:31.829Z,4.40
2023-01-28T18:00:39.382Z,4.40
2023-01-28T18:03:42.951Z,4.40
2023-01-28T18:06:50.149Z,4.40
2023-01-28T18:09:55.394Z,4.40
2023-01-28T18:13:01.185Z,4.40
2023-01-28T18:16:08.147Z,4.40
2023-01-28T18:19:13.753Z,4.30
2023-01-28T18:22:17.347Z,4.30
2023-01-28T18:25:22.994Z,4.30
2023-01-28T18:28:27.165Z,4.30
2023-01-28T18:31:34.739Z,4.30
2023-01-28T18:34:38.523Z,4.30
2023-01-28T18:37:44.105Z,4.30
2023-01-28T18:40:48.451Z,4.30
2023-01-28T18:43:54.048Z,4.30
2023-01-28T18:46:59.560Z,4.30
2023-01-28T18:50:05.688Z,4.20
2023-01-28T18:53:09.261Z,4.20
2023-01-28T18:56:17.663Z,4.30
2023-01-28T18:59:21.365Z,4.20
2023-01-28T19:02:29.337Z,4.30
2023-01-28T19:05:35.488Z,4.20
2023-01-28T19:08:41.086Z,4.20
2023-01-28T19:11:45.494Z,4.20
2023-01-28T19:14:51.108Z,4.20
2023-01-28T19:17:56.568Z,4.20
2023-01-28T19:21:05.843Z,4.10
2023-01-28T19:24:10.620Z,4.10
2023-01-28T19:27:16.214Z,4.10
2023-01-28T19:30:20.060Z,4.10
2023-01-28T19:33:27.769Z,4.10
2023-01-28T19:36:32.524Z,4.10
2023-01-28T19:39:38.139Z,4.10
2023-01-28T19:42:41.678Z,4.10
2023-01-28T19:45:55.855Z,4.10
2023-01-28T19:49:01.441Z,4.10
2023-01-28T19:52:08.545Z,4.00
2023-01-28T19:55:12.323Z,4.00
2023-01-28T19:58:17.921Z,4.00
2023-01-28T20:01:23.053Z,4.00
2023-01-28T20:04:30.565Z,4.00
2023-01-28T20:07:34.140Z,4.00
2023-01-28T20:10:39.764Z,4.00
2023-01-28T20:13:43.978Z,3.90
2023-01-28T20:16:49.844Z,4.00
2023-01-28T20:19:55.343Z,4.00
2023-01-28T20:23:04.963Z,4.00
2023-01-28T20:26:08.587Z,3.90
2023-01-28T20:29:16.813Z,3.90
2023-01-28T20:32:22.473Z,3.90
2023-01-28T20:35:30.013Z,3.90
2023-01-28T20:38:35.745Z,3.90
2023-01-28T20:41:41.300Z,3.90
2023-01-28T20:44:44.908Z,3.90
2023-01-28T20:47:50.519Z,3.90
2023-01-28T20:50:56.048Z,3.90
2023-01-28T20:54:02.301Z,3.90
2023-01-28T20:57:05.884Z,3.80
2023-01-28T21:00:12.358Z,3.80
2023-01-28T21:03:15.964Z,3.80
2023-01-28T21:06:24.027Z,3.80
2023-01-28T21:09:27.658Z,3.80
2023-01-28T21:12:34.073Z,3.80
2023-01-28T21:15:37.637Z,3.80
2023-01-28T21:18:43.264Z,3.80
2023-01-28T21:21:48.781Z,3.70
2023-01-28T21:24:55.177Z,3.80
2023-01-28T21:27:58.749Z,3.70
2023-01-28T21:31:08.506Z,3.80
2023-01-28T21:34:12.765Z,3.80
2023-01-28T21:37:21.912Z,3.80
2023-01-28T21:40:25.488Z,3.70
2023-01-28T21:43:31.085Z,3.70
2023-01-28T21:46:35.074Z,3.70
2023-01-28T21:49:40.729Z,3.70
2023-01-28T21:52:46.193Z,3.70
2023-01-28T21:55:51.816Z,3.70
2023-01-28T21:59:09.185Z,3.70
2023-01-28T22:02:15.571Z,3.70
2023-01-28T22:05:19.181Z,3.70
2023-01-28T22:08:26.678Z,3.70
2023-01-28T22:11:30.257Z,3.70
2023-01-28T22:14:35.954Z,3.70
2023-01-28T22:17:39.544Z,3.70
2023-01-28T22:20:45.171Z,3.70
2023-01-28T22:23:50.722Z,3.70
2023-01-28T22:26:56.341Z,3.70
2023-01-28T22:29:59.953Z,3.70
2023-01-28T22:33:05.524Z,3.70
2023-01-28T22:36:10.298Z,3.70
2023-01-28T22:39:18.335Z,3.70
2023-01-28T22:42:21.940Z,3.70
2023-01-28T22:45:27.603Z,3.70
2023-01-28T22:48:31.553Z,3.70
2023-01-28T22:51:37.623Z,3.70
2023-01-28T22:54:43.084Z,3.70
2023-01-28T22:57:48.628Z,3.70
2023-01-28T23:00:52.242Z,3.70
2023-01-28T23:03:58.152Z,3.70
2023-01-28T23:07:01.762Z,3.70
2023-01-28T23:10:10.546Z,3.70
2023-01-28T23:13:14.551Z,3.70
2023-01-28T23:16:33.566Z,3.70
2023-01-28T23:19:50.314Z,3.70
2023-01-28T23:23:09.064Z,3.70
2023-01-28T23:26:14.582Z,3.70
2023-01-28T23:29:23.152Z,3.70
2023-01-28T23:32:26.958Z,3.70
2023-01-28T23:35:32.601Z,3.70
2023-01-28T23:38:36.379Z,3.70
2023-01-28T23:41:43.882Z,3.70
2023-01-28T23:44:47.818Z,3.70
2023-01-28T23:47:53.794Z,3.70
2023-01-28T23:50:57.388Z,3.70
2023-01-28T23:54:02.943Z,3.70
2023-01-28T23:57:08.453Z,3.70
